Time;durP1;ratioP1;P1;durP2;ratioP2;P2;SDS_P1;SDS_P2;PMS_P1;PMS_P2;Temp;Humidity;BMP_temperature;BMP_pressure;BME280_temperature;BME280_humidity;BME280_pressure;Samples;Min_cycle;Max_cycle;Signal;HPM_P1;HPM_P2
2023/05/13 00:00:54;;;;;;;;;;;;;;;15.93;68.82;100839.44;4971296;28;19918;-82
2023/05/13 00:03:46;;;;;;;;;;;;;;;15.93;68.72;100838.63;4964342;28;19914;-81
2023/05/13 00:06:36;;;;;;;;;;;;;;;15.90;68.72;100837.38;4975969;28;19918;-81
2023/05/13 00:09:28;;;;;;;;;;;;;;;15.90;68.71;100837.38;4974863;28;19918;-81
2023/05/13 00:12:20;;;;;;;;;;;;;;;15.90;68.53;100833.84;4982703;28;20138;-82
2023/05/13 00:15:12;;;;;;;;;;;;;;;15.88;68.80;100831.44;4968934;28;19913;-82
2023/05/13 00:18:04;;;;;;;;;;;;;;;15.88;68.83;100831.44;4985119;28;19914;-83
2023/05/13 00:20:56;;;;;;;;;;;;;;;15.86;68.85;100841.94;4980023;28;19918;-82
2023/05/13 00:23:48;;;;;;;;;;;;;;;15.87;68.80;100835.31;4997004;28;19918;-82
2023/05/13 00:26:40;;;;;;;;;;;;;;;15.86;68.73;100832.91;4985011;28;19914;-82
2023/05/13 00:29:32;;;;;;;;;;;;;;;15.85;68.60;100839.56;4970254;28;20306;-82
2023/05/13 00:32:24;;;;;;;;;;;;;;;15.84;68.90;100836.03;4966703;28;19914;-83
2023/05/13 00:35:13;;;;;;;;;;;;;;;15.82;69.03;100838.31;4965323;28;19914;-82
2023/05/13 00:38:03;;;;;;;;;;;;;;;15.80;69.23;100835.09;4967979;28;19914;-82
2023/05/13 00:40:55;;;;;;;;;;;;;;;15.80;69.24;100837.84;4977287;28;19918;-82
2023/05/13 00:43:47;;;;;;;;;;;;;;;15.79;69.59;100844.50;4981605;28;19914;-82
2023/05/13 00:46:39;;;;;;;;;;;;;;;15.75;69.54;100838.91;4995051;28;19914;-82
2023/05/13 00:49:30;;;;;;;;;;;;;;;15.76;69.46;100839.69;4977701;28;19914;-82
2023/05/13 00:52:22;;;;;;;;;;;;;;;15.76;69.58;100836.94;4962351;28;19915;-82
2023/05/13 00:55:14;;;;;;;;;;;;;;;15.75;69.51;100838.09;4983758;28;19913;-82
2023/05/13 00:58:04;;;;;;;;;;;;;;;15.72;69.61;100839.59;4983564;28;19913;-82
2023/05/13 01:00:58;;;;;;;;;;;;;;;15.70;69.62;100830.09;4966670;28;19918;-81
2023/05/13 01:03:55;;;;;;;;;;;;;;;15.71;69.62;100842.69;4974909;28;19915;-82
2023/05/13 01:07:03;;;;;;;;;;;;;;;15.70;69.54;100835.59;4963522;28;19915;-82
2023/05/13 01:09:59;;;;;;;;;;;;;;;15.67;69.55;100841.78;4990441;28;20382;-82
2023/05/13 01:12:53;;;;;;;;;;;;;;;15.67;69.56;100847.25;4962375;28;19944;-82
2023/05/13 01:15:54;;;;;;;;;;;;;;;15.63;69.56;100843.63;4961542;29;20370;-82
2023/05/13 01:18:50;;;;;;;;;;;;;;;15.64;69.45;100845.22;4986398;28;19914;-82
2023/05/13 01:21:42;;;;;;;;;;;;;;;15.62;69.49;100850.25;4987114;28;19918;-82
2023/05/13 01:24:32;;;;;;;;;;;;;;;15.60;69.56;100847.03;4971476;28;20378;-81
2023/05/13 01:27:25;;;;;;;;;;;;;;;15.59;69.63;100845.47;4997386;28;19914;-82
2023/05/13 01:30:17;;;;;;;;;;;;;;;15.55;69.67;100848.06;4959804;28;19918;-82
2023/05/13 01:33:09;;;;;;;;;;;;;;;15.54;69.60;100846.50;4983906;28;19914;-81
2023/05/13 01:36:02;;;;;;;;;;;;;;;15.53;69.55;100841.34;4981684;28;20293;-82
2023/05/13 01:38:53;;;;;;;;;;;;;;;15.51;69.34;100838.13;4991685;28;19914;-82
2023/05/13 01:41:44;;;;;;;;;;;;;;;15.47;69.13;100834.47;4977836;28;19918;-82
2023/05/13 01:44:36;;;;;;;;;;;;;;;15.45;69.02;100834.81;4968865;28;19914;-81
2023/05/13 01:47:28;;;;;;;;;;;;;;;15.44;68.84;100837.91;4977670;28;19922;-82
2023/05/13 01:50:18;;;;;;;;;;;;;;;15.41;68.81;100840.19;4982507;28;19914;-82
2023/05/13 01:53:07;;;;;;;;;;;;;;;15.41;68.70;100842.94;4979900;28;20361;-82
2023/05/13 01:56:00;;;;;;;;;;;;;;;15.41;68.61;100840.19;4975988;28;19914;-82
2023/05/13 01:58:52;;;;;;;;;;;;;;;15.38;68.36;100846.38;4982447;28;19913;-82
2023/05/13 02:01:39;;;;;;;;;;;;;;;15.37;68.41;100839.28;4985416;28;19918;-82
2023/05/13 02:04:31;;;;;;;;;;;;;;;15.34;68.49;100837.22;5081818;22;20344;-81
2023/05/13 02:07:23;;;;;;;;;;;;;;;15.33;68.52;100821.16;5037886;28;19917;-80
2023/05/13 02:10:14;;;;;;;;;;;;;;;15.31;68.79;100828.91;5040027;28;19913;-81
2023/05/13 02:13:06;;;;;;;;;;;;;;;15.26;68.60;100827.19;5038171;28;19916;-81
2023/05/13 02:15:58;;;;;;;;;;;;;;;15.24;68.53;100823.97;5039711;28;19913;-81
2023/05/13 02:18:50;;;;;;;;;;;;;;;15.23;68.37;100824.34;5024200;28;20308;-80
2023/05/13 02:21:42;;;;;;;;;;;;;;;15.18;68.16;100819.91;5017572;28;20328;-80
2023/05/13 02:24:34;;;;;;;;;;;;;;;15.17;68.24;100815.56;5019428;28;19917;-80
2023/05/13 02:27:26;;;;;;;;;;;;;;;15.15;68.13;100814.28;5032754;28;19917;-80
2023/05/13 02:30:17;;;;;;;;;;;;;;;15.15;68.13;100817.84;5029410;28;19913;-81
2023/05/13 02:33:07;;;;;;;;;;;;;;;15.13;68.28;100817.41;5037553;28;19995;-80
2023/05/13 02:35:59;;;;;;;;;;;;;;;15.11;68.07;100808.72;5025648;28;19912;-80
2023/05/13 02:38:51;;;;;;;;;;;;;;;15.09;67.82;100819.19;5036291;28;19913;-80
2023/05/13 02:41:43;;;;;;;;;;;;;;;15.07;67.82;100812.47;5039172;28;19917;-80
2023/05/13 02:44:32;;;;;;;;;;;;;;;15.07;67.65;100817.97;5019467;28;19917;-79
2023/05/13 02:47:24;;;;;;;;;;;;;;;15.03;67.79;100804.16;5039125;28;19964;-80
2023/05/13 02:50:20;;;;;;;;;;;;;;;15.02;67.73;100815.44;5038704;28;19913;-81
2023/05/13 02:53:11;;;;;;;;;;;;;;;15.02;67.71;100829.94;5037006;28;19913;-80
2023/05/13 02:56:06;;;;;;;;;;;;;;;14.99;67.60;100822.41;5039338;28;20396;-80
2023/05/13 02:58:56;;;;;;;;;;;;;;;14.98;67.57;100826.31;5042423;28;19912;-80
2023/05/13 03:01:48;;;;;;;;;;;;;;;14.97;67.13;100821.97;5044796;28;19917;-80
2023/05/13 03:04:40;;;;;;;;;;;;;;;14.93;67.05;100826.53;5031903;28;19913;-80
2023/05/13 03:07:31;;;;;;;;;;;;;;;14.91;67.16;100823.31;5024062;28;19912;-80
2023/05/13 03:10:23;;;;;;;;;;;;;;;14.90;67.07;100818.97;5019111;28;19913;-81
2023/05/13 03:13:15;;;;;;;;;;;;;;;14.91;67.29;100817.84;5013604;28;19914;-81
2023/05/13 03:16:07;;;;;;;;;;;;;;;14.91;67.15;100812.38;5019207;28;20003;-81
2023/05/13 03:18:59;;;;;;;;;;;;;;;14.91;68.11;100815.91;5023753;28;19913;-80
2023/05/13 03:21:51;;;;;;;;;;;;;;;14.90;68.15;100819.78;5038546;28;19917;-79
2023/05/13 03:24:43;;;;;;;;;;;;;;;14.88;68.03;100822.03;5032370;28;19913;-81
2023/05/13 03:27:35;;;;;;;;;;;;;;;14.86;67.37;100829.00;5020804;28;19913;-81
2023/05/13 03:30:27;;;;;;;;;;;;;;;14.81;67.45;100821.03;5031545;28;19925;-79
2023/05/13 03:33:40;;;;;;;;;;;;;;;14.81;67.42;100818.28;5012308;28;19913;-81
2023/05/13 03:36:32;;;;;;;;;;;;;;;14.79;67.35;100826.03;5012296;28;19913;-81
2023/05/13 03:39:24;;;;;;;;;;;;;;;14.76;67.45;100826.72;5029751;28;20299;-80
2023/05/13 03:42:16;;;;;;;;;;;;;;;14.73;67.61;100832.88;5047675;28;19913;-80
2023/05/13 03:45:09;;;;;;;;;;;;;;;14.71;67.51;100840.63;5038280;28;19912;-81
2023/05/13 03:48:01;;;;;;;;;;;;;;;14.71;67.57;100837.91;5034909;28;19913;-80
2023/05/13 03:50:54;;;;;;;;;;;;;;;14.67;67.55;100837.78;5032572;28;19913;-82
2023/05/13 03:53:46;;;;;;;;;;;;;;;14.68;67.24;100844.06;5030398;28;19913;-80
2023/05/13 03:56:38;;;;;;;;;;;;;;;14.67;67.37;100842.47;5025095;28;19913;-79
2023/05/13 03:59:30;;;;;;;;;;;;;;;14.64;67.46;100843.13;5031903;28;19913;-80
2023/05/13 04:02:20;;;;;;;;;;;;;;;14.63;67.61;100841.53;5020818;28;19913;-81
2023/05/13 04:05:12;;;;;;;;;;;;;;;14.61;67.68;100850.09;5024511;28;19913;-81
2023/05/13 04:08:04;;;;;;;;;;;;;;;14.58;67.83;100850.75;5036571;28;19913;-82
2023/05/13 04:10:56;;;;;;;;;;;;;;;14.56;67.93;100842.09;5034932;28;19913;-81
2023/05/13 04:13:48;;;;;;;;;;;;;;;14.59;67.97;100857.03;5036585;28;19913;-81
2023/05/13 04:16:38;;;;;;;;;;;;;;;14.58;67.96;100866.38;5039993;28;19913;-81
2023/05/13 04:19:32;;;;;;;;;;;;;;;14.59;67.92;100873.44;5016974;28;20327;-80
2023/05/13 04:22:25;;;;;;;;;;;;;;;14.58;68.01;100866.38;5018489;28;19913;-79
2023/05/13 04:25:15;;;;;;;;;;;;;;;14.53;68.15;100868.19;5035006;28;19913;-81
2023/05/13 04:28:07;;;;;;;;;;;;;;;14.51;68.23;100877.88;5037645;28;19912;-79
2023/05/13 04:31:01;;;;;;;;;;;;;;;14.50;68.26;100882.53;5038603;28;19913;-82
2023/05/13 04:33:54;;;;;;;;;;;;;;;14.50;68.36;100882.53;5030459;28;19912;-82
2023/05/13 04:36:47;;;;;;;;;;;;;;;14.50;68.40;100890.75;5038313;28;19932;-82
2023/05/13 04:39:39;;;;;;;;;;;;;;;14.51;68.57;100892.38;5031661;28;19913;-81
2023/05/13 04:42:29;;;;;;;;;;;;;;;14.50;68.77;100890.75;5018108;28;19914;-80
2023/05/13 04:45:19;;;;;;;;;;;;;;;14.50;68.82;100898.97;5015214;28;19913;-81
2023/05/13 04:48:11;;;;;;;;;;;;;;;14.52;68.84;100893.97;5026804;28;20296;-82
2023/05/13 04:51:04;;;;;;;;;;;;;;;14.50;69.07;100903.63;5041183;28;19913;-80
2023/05/13 04:53:56;;;;;;;;;;;;;;;14.50;69.11;100898.97;5017411;28;19913;-82
2023/05/13 04:56:48;;;;;;;;;;;;;;;14.49;69.12;100905.56;5035711;28;20372;-81
2023/05/13 04:59:40;;;;;;;;;;;;;;;14.49;69.22;100913.78;5021871;28;20292;-81
2023/05/13 05:02:32;;;;;;;;;;;;;;;14.49;69.37;100924.72;5027588;28;19913;-82
2023/05/13 05:05:24;;;;;;;;;;;;;;;14.49;69.61;100930.19;5041430;28;19913;-82
2023/05/13 05:08:16;;;;;;;;;;;;;;;14.50;69.67;100934.53;5041121;28;19913;-83
2023/05/13 05:11:08;;;;;;;;;;;;;;;14.49;69.95;100940.34;5044095;28;19913;-84
2023/05/13 05:14:00;;;;;;;;;;;;;;;14.48;70.19;100939.53;5039570;28;19913;-85
2023/05/13 05:16:52;;;;;;;;;;;;;;;14.49;70.09;100940.34;5029690;28;20392;-84
2023/05/13 05:19:42;;;;;;;;;;;;;;;14.49;70.41;100935.66;5028750;28;19912;-83
2023/05/13 05:22:34;;;;;;;;;;;;;;;14.51;70.69;100940.81;5041883;28;19917;-83
2023/05/13 05:25:23;;;;;;;;;;;;;;;14.51;70.95;100949.84;5042405;28;19916;-84
2023/05/13 05:28:15;;;;;;;;;;;;;;;14.53;70.90;100950.28;5042277;28;19913;-85
2023/05/13 05:31:08;;;;;;;;;;;;;;;14.53;71.28;100952.22;5042162;28;19912;-84
2023/05/13 05:34:01;;;;;;;;;;;;;;;14.53;71.17;100960.41;5024321;28;19913;-85
2023/05/13 05:36:53;;;;;;;;;;;;;;;14.57;71.15;100957.84;5042254;28;19951;-83
2023/05/13 05:39:45;;;;;;;;;;;;;;;14.58;71.10;100952.00;5041859;28;19913;-83
2023/05/13 05:42:37;;;;;;;;;;;;;;;14.61;71.25;100964.22;5033143;28;19916;-84
2023/05/13 05:45:27;;;;;;;;;;;;;;;14.61;71.58;100953.28;5052029;28;19975;-84
2023/05/13 05:48:17;;;;;;;;;;;;;;;14.62;71.52;100960.38;5028967;28;19913;-84
2023/05/13 05:51:09;;;;;;;;;;;;;;;14.64;71.62;100969.03;5058713;28;19912;-82
2023/05/13 05:54:08;;;;;;;;;;;;;;;14.63;71.83;100973.69;5027488;28;19912;-84
2023/05/13 05:57:00;;;;;;;;;;;;;;;14.63;72.23;100965.47;5045233;28;19913;-82
2023/05/13 05:59:50;;;;;;;;;;;;;;;14.67;72.32;100971.09;5033032;28;19912;-85
2023/05/13 06:02:42;;;;;;;;;;;;;;;14.68;72.40;100970.75;5045739;28;19912;-84
2023/05/13 06:05:34;;;;;;;;;;;;;;;14.70;72.56;100973.97;5031229;28;20390;-83
2023/05/13 06:08:29;;;;;;;;;;;;;;;14.73;72.94;100975.25;5024676;28;19913;-83
2023/05/13 06:11:21;;;;;;;;;;;;;;;14.74;72.58;100980.34;5044683;28;19913;-84
2023/05/13 06:14:10;;;;;;;;;;;;;;;14.77;72.57;100978.91;5045026;28;19913;-84
2023/05/13 06:17:02;;;;;;;;;;;;;;;14.80;72.60;100980.94;5068023;28;19916;-84
2023/05/13 06:19:54;;;;;;;;;;;;;;;14.82;72.31;100981.44;5065613;28;19912;-83
2023/05/13 06:22:46;;;;;;;;;;;;;;;14.86;72.46;100980.41;5053563;28;20371;-83
2023/05/13 06:25:38;;;;;;;;;;;;;;;14.89;72.50;100979.72;5055602;28;19920;-84
2023/05/13 06:28:30;;;;;;;;;;;;;;;14.93;72.32;100985.34;5066337;28;19912;-84
2023/05/13 06:31:22;;;;;;;;;;;;;;;14.92;72.64;100981.00;5066097;28;19912;-83
2023/05/13 06:34:15;;;;;;;;;;;;;;;14.95;72.46;100981.13;5073760;28;19920;-83
2023/05/13 06:37:07;;;;;;;;;;;;;;;14.99;72.52;100978.50;5055425;28;19913;-83
2023/05/13 06:39:59;;;;;;;;;;;;;;;15.03;72.87;100981.38;5064154;28;20390;-83
2023/05/13 06:42:48;;;;;;;;;;;;;;;15.07;72.60;100972.16;5050566;28;20497;-83
2023/05/13 06:45:42;;;;;;;;;;;;;;;15.11;72.13;100973.06;5064977;28;19913;-83
2023/05/13 06:48:33;;;;;;;;;;;;;;;15.15;72.24;100970.44;5066962;28;19971;-84
2023/05/13 06:51:30;;;;;;;;;;;;;;;15.19;71.75;100979.56;5063947;28;19912;-84
2023/05/13 06:54:22;;;;;;;;;;;;;;;15.21;71.66;100972.63;5093709;28;20370;-84
2023/05/13 06:57:14;;;;;;;;;;;;;;;15.23;71.05;100975.84;5083270;28;19912;-82
2023/05/13 07:00:04;;;;;;;;;;;;;;;15.28;70.54;100981.09;5076540;28;19912;-82
2023/05/13 07:02:56;;;;;;;;;;;;;;;15.35;70.76;100978.56;5059149;28;19916;-84
2023/05/13 07:05:48;;;;;;;;;;;;;;;15.40;70.94;100975.63;5068957;28;20370;-84
2023/05/13 07:08:40;;;;;;;;;;;;;;;15.44;70.83;100974.94;5065045;28;19912;-84
2023/05/13 07:11:32;;;;;;;;;;;;;;;15.47;70.81;100972.31;5050502;28;19912;-83
2023/05/13 07:14:23;;;;;;;;;;;;;;;15.51;70.60;100975.16;5059269;28;19912;-84
2023/05/13 07:17:15;;;;;;;;;;;;;;;15.54;70.75;100971.78;5054827;28;19916;-83
2023/05/13 07:20:10;;;;;;;;;;;;;;;15.59;70.99;100966.88;5063093;28;19912;-83
2023/05/13 07:23:06;;;;;;;;;;;;;;;15.63;71.27;100972.47;5063200;28;19912;-83
2023/05/13 07:26:02;;;;;;;;;;;;;;;15.69;71.41;100971.09;5071679;28;19912;-83
2023/05/13 07:32:53;;;;;;;;;;;;;;;15.76;69.82;100976.78;5077482;28;19913;-84
2023/05/13 07:35:43;;;;;;;;;;;;;;;15.79;69.53;100982.41;5065382;28;19912;-84
2023/05/13 07:38:35;;;;;;;;;;;;;;;15.86;68.31;100986.50;5044869;28;19913;-83
2023/05/13 07:41:27;;;;;;;;;;;;;;;15.88;68.26;100985.03;5050743;28;20291;-82
2023/05/13 07:44:18;;;;;;;;;;;;;;;15.93;68.03;100982.06;5041810;28;19912;-83
2023/05/13 07:47:23;;;;;;;;;;;;;;;15.96;67.57;100978.59;5066806;28;19912;-82
2023/05/13 07:50:15;;;;;;;;;;;;;;;16.01;67.72;100977.56;5054184;28;20360;-82
2023/05/13 07:53:05;;;;;;;;;;;;;;;16.03;67.34;100976.09;5061019;28;19912;-83
2023/05/13 07:55:57;;;;;;;;;;;;;;;16.06;67.18;100967.16;5069404;28;19916;-83
2023/05/13 07:58:49;;;;;;;;;;;;;;;16.08;67.19;100977.78;5078248;28;19912;-83
2023/05/13 08:01:41;;;;;;;;;;;;;;;16.11;66.92;100977.91;5071795;28;19916;-83
2023/05/13 08:04:33;;;;;;;;;;;;;;;16.14;66.91;100979.97;5043573;28;19917;-81
2023/05/13 08:07:23;;;;;;;;;;;;;;;16.16;66.72;100972.16;5056405;28;19916;-80
2023/05/13 08:10:15;;;;;;;;;;;;;;;16.19;66.53;100976.97;5056872;28;19912;-81
2023/05/13 08:13:07;;;;;;;;;;;;;;;16.24;66.62;100981.44;5059970;28;19912;-81
2023/05/13 08:16:01;;;;;;;;;;;;;;;16.25;66.56;100975.56;5047729;28;19913;-80
2023/05/13 08:18:53;;;;;;;;;;;;;;;16.30;66.77;100971.00;5072524;28;19912;-82
2023/05/13 08:21:45;;;;;;;;;;;;;;;16.32;66.73;100966.75;5074847;28;19916;-81
2023/05/13 08:24:36;;;;;;;;;;;;;;;16.35;66.35;100968.81;5049715;28;19912;-81
2023/05/13 08:27:26;;;;;;;;;;;;;;;16.40;66.15;100970.53;5062170;28;19912;-82
2023/05/13 08:30:18;;;;;;;;;;;;;;;16.41;65.71;100972.09;5075018;28;19916;-80
2023/05/13 08:33:10;;;;;;;;;;;;;;;16.47;64.99;100965.22;5051662;28;19912;-80
2023/05/13 08:36:00;;;;;;;;;;;;;;;16.54;64.36;100968.19;5074737;28;19912;-81
2023/05/13 08:38:49;;;;;;;;;;;;;;;16.57;64.50;100967.47;5074860;28;19916;-83
2023/05/13 08:41:42;;;;;;;;;;;;;;;16.62;64.80;100970.00;5060112;28;19916;-81
2023/05/13 08:44:35;;;;;;;;;;;;;;;16.67;63.99;100967.00;5062660;28;19912;-80
2023/05/13 08:47:40;;;;;;;;;;;;;;;16.72;65.18;100968.69;5063136;28;19912;-80
2023/05/13 08:50:33;;;;;;;;;;;;;;;16.74;64.40;100961.72;5055009;28;19912;-80
2023/05/13 08:53:26;;;;;;;;;;;;;;;16.77;64.35;100954.72;5063301;28;19922;-81
2023/05/13 08:56:18;;;;;;;;;;;;;;;16.80;64.19;100960.31;5060817;28;19931;-80
2023/05/13 08:59:10;;;;;;;;;;;;;;;16.85;63.97;100962.00;5041814;28;19912;-80
2023/05/13 09:02:03;;;;;;;;;;;;;;;16.87;63.54;100951.44;5080607;28;19916;-81
2023/05/13 09:04:55;;;;;;;;;;;;;;;16.90;63.87;100959.81;5050253;28;20384;-80
2023/05/13 09:07:44;;;;;;;;;;;;;;;16.96;63.57;100963.91;5052780;28;20291;-81
2023/05/13 09:10:37;;;;;;;;;;;;;;;16.96;63.50;100947.41;5051716;28;19912;-79
2023/05/13 09:13:26;;;;;;;;;;;;;;;17.00;63.39;100951.06;5052075;28;20383;-80
2023/05/13 09:16:18;;;;;;;;;;;;;;;17.04;63.20;100957.44;5064928;28;19916;-80
2023/05/13 09:19:10;;;;;;;;;;;;;;;17.07;63.37;100948.47;5061698;28;19912;-80
2023/05/13 09:21:59;;;;;;;;;;;;;;;17.10;63.21;100953.28;5064909;28;19919;-80
2023/05/13 09:24:58;;;;;;;;;;;;;;;17.14;63.10;100953.38;5055142;28;19912;-79
2023/05/13 09:27:46;;;;;;;;;;;;;;;17.17;63.15;100951.88;5039050;28;20371;-79
2023/05/13 09:30:40;;;;;;;;;;;;;;;17.23;62.53;100947.69;5038975;28;19917;-80
2023/05/13 09:33:31;;;;;;;;;;;;;;;17.26;62.65;100949.75;5056048;28;19920;-81
2023/05/13 09:36:21;;;;;;;;;;;;;;;17.28;62.55;100952.91;5039188;28;19916;-80
2023/05/13 09:39:10;;;;;;;;;;;;;;;17.30;62.94;100940.44;5050191;28;19912;-79
2023/05/13 09:41:59;;;;;;;;;;;;;;;17.35;62.13;100944.88;5058624;28;19916;-80
2023/05/13 09:44:49;;;;;;;;;;;;;;;17.40;61.64;100944.59;5042957;28;20394;-80
2023/05/13 09:47:36;;;;;;;;;;;;;;;17.44;61.95;100945.47;5064241;28;19916;-81
2023/05/13 09:50:28;;;;;;;;;;;;;;;17.46;62.26;100946.72;5059925;28;19917;-81
2023/05/13 09:53:23;;;;;;;;;;;;;;;17.49;62.47;100947.97;5045368;28;19912;-80
2023/05/13 09:56:21;;;;;;;;;;;;;;;17.51;61.52;100940.97;5070358;28;19921;-80
2023/05/13 09:59:12;;;;;;;;;;;;;;;17.54;62.02;100939.44;5064992;28;19912;-81
2023/05/13 10:02:05;;;;;;;;;;;;;;;17.60;61.68;100942.75;5061963;28;19917;-81
2023/05/13 10:04:57;;;;;;;;;;;;;;;17.66;61.16;100933.88;5055087;28;19913;-82
2023/05/13 10:07:46;;;;;;;;;;;;;;;17.70;60.61;100942.19;5059272;28;19916;-82
2023/05/13 10:10:35;;;;;;;;;;;;;;;17.73;60.08;100933.22;5050378;28;19912;-81
2023/05/13 10:13:27;;;;;;;;;;;;;;;17.80;60.01;100936.16;5075064;28;19913;-82
2023/05/13 10:16:17;;;;;;;;;;;;;;;17.85;59.41;100939.41;5061401;28;19912;-81
2023/05/13 10:19:07;;;;;;;;;;;;;;;17.86;59.22;100934.72;5057987;28;19916;-82
2023/05/13 10:21:59;;;;;;;;;;;;;;;17.91;59.25;100931.69;5064896;28;19924;-80
2023/05/13 10:24:48;;;;;;;;;;;;;;;17.93;59.79;100929.34;5059579;28;19916;-80
2023/05/13 10:27:39;;;;;;;;;;;;;;;17.95;59.69;100927.06;5058330;28;20367;-81
2023/05/13 10:30:31;;;;;;;;;;;;;;;17.99;59.12;100929.88;5053888;28;19912;-82
2023/05/13 10:33:23;;;;;;;;;;;;;;;18.01;59.54;100924.81;5061858;28;19916;-83
2023/05/13 10:36:31;;;;;;;;;;;;;;;18.01;59.75;100925.63;5064680;28;19916;-85
2023/05/13 10:39:36;;;;;;;;;;;;;;;18.04;59.77;100921.34;5073427;28;19913;-81
2023/05/13 10:42:41;;;;;;;2.95;0.80;;;;;;;17.82;57.51;100907.13;5063610;28;20434;-80
2023/05/13 10:45:36;;;;;;;1.73;0.60;;;;;;;17.80;55.98;100898.44;5045978;28;20075;-79
2023/05/13 10:48:42;;;;;;;3.17;0.60;;;;;;;17.99;57.58;100900.41;5079266;28;20048;-81
2023/05/13 10:51:48;;;;;;;3.63;0.93;;;;;;;18.41;57.04;100894.19;5053898;28;20044;-82
2023/05/13 10:54:43;;;;;;;1.25;0.60;;;;;;;18.83;54.56;100889.53;5058556;28;20048;-82
2023/05/13 10:58:02;;;;;;;1.95;0.55;;;;;;;18.85;53.28;100889.94;5069806;28;20048;-80
2023/05/13 11:01:13;;;;;;;1.55;0.40;;;;;;;18.78;53.09;100885.09;5078866;28;20043;-80
2023/05/13 11:04:08;;;;;;;3.05;0.50;;;;;;;20.34;49.72;100897.72;5055923;28;20059;-80
2023/05/13 11:07:17;;;;;;;1.58;0.50;;;;;;;19.87;49.31;100887.22;5049518;28;20051;-79
2023/05/13 11:10:29;;;;;;;2.28;0.60;;;;;;;19.73;50.17;100893.34;5073000;28;20519;-80
2023/05/13 11:13:24;;;;;;;2.40;1.25;;;;;;;19.63;50.49;100894.78;5068881;28;20558;-81
2023/05/13 11:16:16;;;;;;;8.35;0.98;;;;;;;19.18;51.09;100883.81;5043223;28;20040;-81
2023/05/13 11:19:17;;;;;;;2.83;0.75;;;;;;;24.86;36.61;100891.06;5054743;28;20056;-80
2023/05/13 11:22:19;;;;;;;1.88;0.70;;;;;;;21.64;46.25;100880.75;5059276;28;20052;-82
2023/05/13 11:25:16;;;;;;;3.13;0.75;;;;;;;20.92;47.92;100878.59;5080705;28;20051;-81
2023/05/13 11:28:11;;;;;;;2.58;1.00;;;;;;;20.40;46.82;100874.13;5056054;28;20241;-81
2023/05/13 11:31:18;;;;;;;1.60;0.73;;;;;;;20.44;46.56;100864.69;5054684;28;20051;-80
2023/05/13 11:34:17;;;;;;;1.17;0.43;;;;;;;20.53;45.21;100866.34;5049188;28;20407;-81
2023/05/13 11:37:10;;;;;;;1.77;0.60;;;;;;;20.41;45.38;100862.69;5071750;28;20055;-81
2023/05/13 11:40:03;;;;;;;1.02;0.30;;;;;;;20.41;45.17;100862.69;5056015;28;20067;-81
2023/05/13 11:42:56;;;;;;;2.92;0.80;;;;;;;20.35;47.50;100857.88;5062886;28;20048;-79
2023/05/13 11:45:46;;;;;;;6.72;0.43;;;;;;;20.05;48.73;100852.38;5044965;28;20538;-80
2023/05/13 11:48:38;;;;;;;0.70;0.40;;;;;;;20.77;46.44;100852.00;5043446;28;20052;-78
2023/05/13 11:51:30;;;;;;;1.35;0.55;;;;;;;20.89;46.49;100860.81;5038950;28;20403;-79
2023/05/13 11:54:20;;;;;;;1.30;0.60;;;;;;;20.61;45.99;100856.97;5057330;28;20047;-78
2023/05/13 11:57:20;;;;;;;8.05;0.77;;;;;;;22.90;42.63;100854.75;5062728;28;20060;-79
2023/05/13 12:00:15;;;;;;;3.92;0.60;;;;;;;22.47;41.86;100859.38;5058758;28;20419;-80
2023/05/13 12:03:15;;;;;;;1.60;0.50;;;;;;;21.41;42.68;100864.41;5073712;28;20047;-80
2023/05/13 12:06:10;;;;;;;4.45;0.45;;;;;;;21.12;44.28;100854.28;5066096;28;20051;-80
2023/05/13 12:09:09;;;;;;;0.57;0.40;;;;;;;21.30;46.00;100853.25;5051663;28;20408;-78
2023/05/13 12:12:02;;;;;;;1.40;0.65;;;;;;;20.98;45.20;100851.41;5076329;28;20044;-78
2023/05/13 12:15:04;;;;;;;0.83;0.40;;;;;;;25.76;34.05;100856.47;5049675;28;20039;-78
2023/05/13 12:17:56;;;;;;;0.82;0.38;;;;;;;23.18;38.49;100830.94;5062391;28;20530;-83
2023/05/13 12:20:51;;;;;;;1.27;0.40;;;;;;;22.01;40.71;100828.75;5062422;28;20062;-81
2023/05/13 12:23:45;;;;;;;2.42;0.55;;;;;;;21.86;42.00;100821.56;5060956;28;20048;-86
2023/05/13 12:26:40;;;;;;;2.42;0.50;;;;;;;21.53;41.70;100811.53;5069831;28;20044;-80
2023/05/13 12:29:42;;;;;;;2.55;0.50;;;;;;;21.51;41.61;100808.34;5053492;28;20046;-79
2023/05/13 12:32:34;;;;;;;3.60;0.50;;;;;;;21.42;42.56;100812.63;5068299;28;20517;-82
2023/05/13 12:35:29;;;;;;;3.97;1.20;;;;;;;21.58;42.39;100813.13;5060807;28;20040;-81
2023/05/13 12:38:24;;;;;;;1.45;0.40;;;;;;;21.33;43.67;100813.75;5060428;28;20051;-82
2023/05/13 12:41:16;;;;;;;2.85;1.17;;;;;;;21.04;43.62;100806.41;5063735;28;20068;-79
2023/05/13 12:44:13;;;;;;;2.10;1.33;;;;;;;21.09;43.19;100819.88;5060654;28;20051;-79
2023/05/13 12:47:05;;;;;;;1.23;0.30;;;;;;;21.01;42.77;100821.00;5053407;28;20514;-80
2023/05/13 12:50:03;;;;;;;6.20;0.93;;;;;;;20.68;44.33;100832.97;5059623;28;20609;-82
2023/05/13 12:52:59;;;;;;;1.65;0.55;;;;;;;20.38;42.74;100827.53;5074300;28;20044;-82
2023/05/13 12:55:53;;;;;;;2.28;0.43;;;;;;;20.25;43.55;100841.97;5071065;28;20048;-83
2023/05/13 12:58:48;;;;;;;2.70;0.50;;;;;;;20.37;44.47;100830.66;5066710;28;20043;-82
2023/05/13 13:01:33;;;;;;;4.68;1.10;;;;;;;20.38;43.84;100818.44;5078800;28;20044;-82
2023/05/13 13:04:28;;;;;;;5.85;1.10;;;;;;;20.38;43.80;100823.97;5080887;28;20047;-83
2023/05/13 13:07:23;;;;;;;0.70;0.50;;;;;;;20.26;45.16;100821.47;5065846;28;20051;-83
2023/05/13 13:10:18;;;;;;;73.07;15.73;;;;;;;20.26;49.08;100833.31;5053062;28;20051;-81
2023/05/13 13:13:13;;;;;;;28.48;5.68;;;;;;;20.44;48.20;100828.78;5063289;28;20036;-81
2023/05/13 13:16:05;;;;;;;;;;;;;;;20.52;48.91;100828.88;5071319;28;20403;-80
2023/05/13 13:18:57;;;;;;;;;;;;;;;20.53;49.01;100822.16;5061059;28;19912;-81
2023/05/13 13:21:49;;;;;;;;;;;;;;;20.55;48.97;100817.84;5061337;28;19920;-82
2023/05/13 13:24:41;;;;;;;;;;;;;;;20.59;47.99;100818.66;5047200;28;19912;-81
2023/05/13 13:27:33;;;;;;;;;;;;;;;20.65;48.01;100825.44;5080933;28;20379;-80
2023/05/13 13:30:20;;;;;;;;;;;;;;;20.63;47.90;100811.19;5065851;28;20367;-82
2023/05/13 13:33:12;;;;;;;;;;;;;;;20.61;48.43;100810.00;5049991;28;19912;-82
2023/05/13 13:36:02;;;;;;;;;;;;;;;20.60;47.69;100811.97;5060228;28;19913;-82
2023/05/13 13:38:54;;;;;;;;;;;;;;;20.59;47.96;100810.38;5051696;28;19912;-82
2023/05/13 13:41:46;;;;;;;;;;;;;;;20.57;48.65;100809.94;5063313;28;19916;-80
2023/05/13 13:44:35;;;;;;;;;;;;;;;20.61;48.28;100819.09;5040988;28;19920;-82
2023/05/13 13:47:27;;;;;;;;;;;;;;;20.65;47.72;100819.13;5040177;28;20392;-82
2023/05/13 13:50:19;;;;;;;;;;;;;;;20.67;46.96;100808.50;5047857;28;19916;-82
2023/05/13 13:53:11;;;;;;;;;;;;;;;20.65;47.78;100788.72;5059952;28;19912;-80
2023/05/13 13:56:03;;;;;;;;;;;;;;;20.67;47.82;100798.19;5074779;28;20299;-80
2023/05/13 13:58:53;;;;;;;;;;;;;;;20.68;46.95;100787.94;5047673;28;20295;-81
2023/05/13 14:01:42;;;;;;;;;;;;;;;20.67;46.65;100786.38;5064814;28;19916;-81
2023/05/13 14:04:32;;;;;;;;;;;;;;;20.64;45.97;100792.66;5044390;28;19912;-82
2023/05/13 14:07:19;;;;;;;;;;;;;;;20.63;45.98;100794.63;5060736;28;19916;-80
2023/05/13 14:10:09;;;;;;;;;;;;;;;20.60;45.74;100791.84;5066196;28;19912;-82
2023/05/13 14:13:01;;;;;;;;;;;;;;;20.59;44.46;100784.72;5064235;28;19912;-82
2023/05/13 14:15:53;;;;;;;;;;;;;;;20.60;46.35;100800.91;5068756;28;19911;-81
2023/05/13 14:18:43;;;;;;;;;;;;;;;20.56;47.65;100802.84;5060683;28;20299;-83
2023/05/13 14:21:35;;;;;;;;;;;;;;;20.52;48.43;100799.25;5063129;28;19912;-82
2023/05/13 14:24:27;;;;;;;;;;;;;;;20.51;48.23;100794.13;5060966;28;19912;-82
2023/05/13 14:27:16;;;;;;;;;;;;;;;20.43;47.73;100794.03;5071637;28;19916;-81
2023/05/13 14:30:07;;;;;;;;;;;;;;;20.41;48.92;100792.84;5062519;28;20105;-81
2023/05/13 14:32:59;;;;;;;;;;;;;;;20.36;48.72;100793.19;5052408;28;19917;-83
2023/05/13 14:35:48;;;;;;;;;;;;;;;20.35;49.95;100786.06;5054176;28;19912;-83